Time;durP1;ratioP1;P1;durP2;ratioP2;P2;SDS_P1;SDS_P2;PMS_P1;PMS_P2;Temp;Humidity;BMP_temperature;BMP_pressure;BME280_temperature;BME280_humidity;BME280_pressure;Samples;Min_cycle;Max_cycle;Signal;HPM_P1;HPM_P2
2022/01/31 00:01:30;;;;;;;24.05;7.18;;;0.00;99.90;;;;;;4957255;28;20035;-89
2022/01/31 00:03:56;;;;;;;35.58;8.35;;;0.00;99.90;;;;;;4956894;28;20058;-89
2022/01/31 00:06:21;;;;;;;21.60;7.28;;;0.00;99.90;;;;;;4956940;28;20042;-89
2022/01/31 00:08:48;;;;;;;28.40;7.70;;;0.00;99.90;;;;;;4972900;28;20110;-89
2022/01/31 00:11:16;;;;;;;30.33;7.95;;;-0.10;99.90;;;;;;4956953;28;20043;-89
2022/01/31 00:13:45;;;;;;;28.00;8.30;;;-0.10;99.90;;;;;;4955770;28;20031;-89
2022/01/31 00:16:16;;;;;;;33.70;8.23;;;0.00;99.90;;;;;;4956305;28;20186;-90
2022/01/31 00:18:42;;;;;;;38.33;9.48;;;-0.10;99.90;;;;;;4972909;28;20034;-89
2022/01/31 00:21:08;;;;;;;33.42;7.82;;;0.00;99.90;;;;;;4956428;28;20389;-89
2022/01/31 00:23:34;;;;;;;27.58;9.95;;;0.00;99.90;;;;;;4972748;28;20464;-89
2022/01/31 00:26:03;;;;;;;27.75;7.72;;;0.00;99.90;;;;;;4972829;28;20039;-89
2022/01/31 00:28:32;;;;;;;34.15;9.65;;;0.00;99.90;;;;;;4972991;28;20599;-89
2022/01/31 00:30:59;;;;;;;33.47;8.05;;;0.00;99.90;;;;;;4956184;28;20031;-89
2022/01/31 00:33:25;;;;;;;58.63;22.38;;;0.00;99.90;;;;;;4972268;28;20369;-89
2022/01/31 00:35:50;;;;;;;25.52;9.52;;;0.10;99.90;;;;;;4972309;28;20039;-88
2022/01/31 00:38:16;;;;;;;27.98;9.98;;;0.10;99.90;;;;;;4956344;28;20086;-89
2022/01/31 00:40:42;;;;;;;37.47;9.48;;;0.10;99.90;;;;;;4956353;28;20027;-89
2022/01/31 00:43:13;;;;;;;36.47;10.55;;;0.00;99.90;;;;;;4956862;28;20039;-89
2022/01/31 00:45:46;;;;;;;30.02;8.15;;;0.10;99.90;;;;;;4957594;28;20023;-89
2022/01/31 00:48:24;;;;;;;30.75;7.32;;;0.20;99.90;;;;;;4957096;28;20027;-90
2022/01/31 00:50:50;;;;;;;29.10;7.00;;;0.30;99.90;;;;;;4956884;29;20027;-89
2022/01/31 00:53:16;;;;;;;26.50;7.00;;;0.40;99.90;;;;;;4956705;28;20078;-89
2022/01/31 00:55:43;;;;;;;30.77;7.63;;;0.40;99.90;;;;;;4956299;28;20444;-89
2022/01/31 00:58:12;;;;;;;22.00;7.35;;;0.40;99.90;;;;;;4956800;28;20035;-89
2022/01/31 01:00:38;;;;;;;33.70;6.97;;;0.40;99.90;;;;;;4955954;28;20042;-88
2022/01/31 01:03:04;;;;;;;24.17;7.32;;;0.50;99.90;;;;;;4956084;28;20031;-89
2022/01/31 01:05:30;;;;;;;23.05;6.53;;;0.50;99.90;;;;;;4956570;28;20039;-88
2022/01/31 01:07:56;;;;;;;28.52;6.72;;;0.50;99.90;;;;;;4955817;28;20441;-89
2022/01/31 01:10:25;;;;;;;35.72;6.97;;;0.50;99.90;;;;;;4972114;28;20042;-89
2022/01/31 01:12:51;;;;;;;24.10;6.03;;;0.50;99.90;;;;;;4955588;28;20555;-89
2022/01/31 01:15:17;;;;;;;33.20;6.78;;;0.50;99.90;;;;;;4955340;28;20154;-88
2022/01/31 01:17:45;;;;;;;24.60;6.93;;;0.50;99.90;;;;;;4955852;28;20031;-89
2022/01/31 01:20:21;;;;;;;25.48;6.85;;;0.50;99.90;;;;;;4956182;28;20031;-89
2022/01/31 01:23:02;;;;;;;31.10;7.47;;;0.50;99.90;;;;;;4955519;28;20035;-89
2022/01/31 01:25:30;;;;;;;20.02;6.95;;;0.50;99.90;;;;;;4955589;29;20039;-89
2022/01/31 01:27:56;;;;;;;34.00;6.82;;;0.50;99.90;;;;;;4955466;28;20495;-88
2022/01/31 01:30:21;;;;;;;35.33;8.23;;;0.50;99.90;;;;;;4955181;28;20039;-89
2022/01/31 01:33:10;;;;;;;29.02;8.80;;;0.50;99.90;;;;;;4954739;28;20031;-89
2022/01/31 01:35:38;;;;;;;30.98;8.68;;;0.50;99.90;;;;;;4954945;28;20134;-89
2022/01/31 01:38:07;;;;;;;38.85;9.93;;;0.50;99.90;;;;;;4955107;28;20673;-89
2022/01/31 01:40:39;;;;;;;24.20;7.28;;;0.50;99.90;;;;;;4955006;28;20031;-89
2022/01/31 01:43:05;;;;;;;33.53;9.57;;;0.50;99.90;;;;;;4955028;28;20044;-89
2022/01/31 01:45:32;;;;;;;38.40;9.18;;;0.50;99.90;;;;;;4955218;28;20043;-88
2022/01/31 01:47:58;;;;;;;36.80;8.57;;;0.50;99.90;;;;;;4954835;28;20110;-89
2022/01/31 01:50:24;;;;;;;38.85;10.52;;;0.50;99.90;;;;;;4954758;28;20425;-89
2022/01/31 01:52:54;;;;;;;29.50;8.93;;;0.50;99.90;;;;;;4953812;28;20130;-89
2022/01/31 01:55:21;;;;;;;36.65;9.43;;;0.40;99.90;;;;;;4953923;28;20073;-89
2022/01/31 01:57:47;;;;;;;35.85;9.93;;;0.40;99.90;;;;;;4944635;28;20023;-88
2022/01/31 02:00:24;;;;;;;34.05;9.60;;;0.40;99.90;;;;;;4970154;28;20106;-87
2022/01/31 02:03:21;;;;;;;29.90;7.43;;;0.40;99.90;;;;;;4970109;28;20376;-89
2022/01/31 02:05:48;;;;;;;26.88;8.57;;;0.40;99.90;;;;;;4952382;28;20027;-89
2022/01/31 02:08:16;;;;;;;27.27;7.53;;;0.40;99.90;;;;;;4954630;28;20046;-89
2022/01/31 02:10:42;;;;;;;34.20;8.43;;;0.40;99.90;;;;;;4954596;28;20055;-89
2022/01/31 02:13:15;;;;;;;26.73;8.55;;;0.40;99.90;;;;;;4954548;28;20027;-90
2022/01/31 02:16:14;;;;;;;32.40;8.80;;;0.40;99.90;;;;;;4935138;28;20492;-88
2022/01/31 02:18:59;;;;;;;35.45;8.80;;;0.40;99.90;;;;;;4968495;28;20042;-88
2022/01/31 02:21:45;;;;;;;37.03;9.25;;;0.30;99.90;;;;;;4968400;28;20130;-89
2022/01/31 02:24:30;;;;;;;40.22;11.63;;;0.40;99.90;;;;;;4969101;28;20110;-89
2022/01/31 02:27:14;;;;;;;23.15;8.60;;;0.40;99.90;;;;;;4954430;28;20055;-88
2022/01/31 02:29:40;;;;;;;30.30;9.40;;;0.40;99.90;;;;;;4954870;28;20031;-88
2022/01/31 02:32:06;;;;;;;35.22;9.93;;;0.40;99.90;;;;;;4954106;28;20032;-89
2022/01/31 02:34:54;;;;;;;33.58;11.07;;;0.40;99.90;;;;;;4954535;28;20063;-89
2022/01/31 02:37:21;;;;;;;40.35;11.40;;;0.40;99.90;;;;;;4954654;28;20057;-88
2022/01/31 02:39:47;;;;;;;35.10;10.98;;;0.40;99.90;;;;;;4954099;28;20027;-88
2022/01/31 02:42:14;;;;;;;30.95;10.63;;;0.30;99.90;;;;;;4954301;28;20118;-88
2022/01/31 02:44:42;;;;;;;44.30;12.38;;;0.30;99.90;;;;;;4954240;28;20058;-88
2022/01/31 02:47:22;;;;;;;34.67;12.82;;;0.30;99.90;;;;;;4953904;28;20031;-91
2022/01/31 02:52:20;;;;;;;38.40;12.07;;;0.30;99.90;;;;;;4950542;28;20560;-86
2022/01/31 02:54:47;;;;;;;33.20;12.65;;;0.20;99.90;;;;;;4950352;29;20136;-88
2022/01/31 02:57:13;;;;;;;36.80;11.57;;;0.20;99.90;;;;;;4950697;28;20127;-89
2022/01/31 02:59:39;;;;;;;45.03;14.45;;;0.20;99.90;;;;;;4950245;29;20563;-87
2022/01/31 03:02:06;;;;;;;47.67;13.82;;;0.20;99.90;;;;;;4950561;29;20027;-87
2022/01/31 03:04:32;;;;;;;41.88;11.65;;;0.20;99.90;;;;;;4950827;28;20028;-88
2022/01/31 03:06:59;;;;;;;38.88;11.48;;;0.20;99.90;;;;;;4950341;29;20031;-88
2022/01/31 03:09:25;;;;;;;31.00;12.00;;;0.20;99.90;;;;;;4950574;29;20539;-89
2022/01/31 03:12:13;;;;;;;44.53;12.88;;;0.20;99.90;;;;;;4950514;28;20038;-88
2022/01/31 03:14:45;;;;;;;43.35;12.23;;;0.20;99.90;;;;;;4950274;29;20040;-88
2022/01/31 03:17:31;;;;;;;38.05;12.85;;;0.20;99.90;;;;;;4948365;28;20036;-87
2022/01/31 03:19:57;;;;;;;30.75;12.95;;;0.20;99.90;;;;;;4953016;28;20032;-88
2022/01/31 03:22:24;;;;;;;41.05;12.55;;;0.20;99.90;;;;;;4954898;29;20046;-88
2022/01/31 03:24:50;;;;;;;38.13;12.95;;;0.20;99.90;;;;;;4955218;28;20035;-87
2022/01/31 03:27:16;;;;;;;40.13;12.85;;;0.30;99.90;;;;;;4955925;28;20031;-88
2022/01/31 03:29:43;;;;;;;41.30;13.00;;;0.30;99.90;;;;;;4954653;29;20753;-88
2022/01/31 03:32:09;;;;;;;34.13;13.00;;;0.20;99.90;;;;;;4954639;29;20031;-88
2022/01/31 03:34:35;;;;;;;39.17;13.13;;;0.20;99.90;;;;;;4938300;29;20191;-88
2022/01/31 03:37:01;;;;;;;40.05;13.75;;;0.20;99.90;;;;;;4954322;28;20074;-88
2022/01/31 03:39:28;;;;;;;31.65;12.82;;;0.20;99.90;;;;;;4953952;29;20039;-87
2022/01/31 03:41:54;;;;;;;36.65;13.25;;;0.30;99.90;;;;;;4970324;28;20027;-88
2022/01/31 03:44:21;;;;;;;36.75;13.25;;;0.20;99.90;;;;;;4954786;29;20384;-88
2022/01/31 03:46:52;;;;;;;35.55;12.75;;;0.30;99.90;;;;;;4953832;28;20509;-88
2022/01/31 03:49:20;;;;;;;28.65;11.85;;;0.30;99.90;;;;;;4955192;28;20063;-91
2022/01/31 03:51:51;;;;;;;30.75;12.18;;;0.30;99.90;;;;;;4955004;28;20114;-89
2022/01/31 03:54:24;;;;;;;39.15;12.13;;;0.40;99.90;;;;;;4954046;29;20040;-89
2022/01/31 03:56:50;;;;;;;28.77;10.32;;;0.50;99.90;;;;;;4954598;28;20035;-89
2022/01/31 03:59:23;;;;;;;34.58;11.20;;;0.50;99.90;;;;;;4954124;28;20103;-88
2022/01/31 04:01:51;;;;;;;36.35;9.80;;;0.50;99.90;;;;;;4923679;29;20032;-88
2022/01/31 04:04:17;;;;;;;32.47;11.48;;;0.50;99.90;;;;;;4954246;29;20036;-88
2022/01/31 04:06:43;;;;;;;31.55;10.90;;;0.50;99.90;;;;;;4954977;29;20048;-86
2022/01/31 04:09:09;;;;;;;41.15;13.15;;;0.50;99.90;;;;;;4954231;29;20040;-88
2022/01/31 04:11:35;;;;;;;33.75;11.02;;;0.60;99.90;;;;;;4954601;29;20043;-88
2022/01/31 04:14:00;;;;;;;40.30;12.15;;;0.60;99.90;;;;;;4939470;29;20127;-88
2022/01/31 04:16:26;;;;;;;43.17;11.45;;;0.60;99.90;;;;;;4954224;29;20036;-89
2022/01/31 04:18:55;;;;;;;30.08;11.35;;;0.60;99.90;;;;;;4953535;29;20043;-89
2022/01/31 04:21:21;;;;;;;34.38;11.65;;;0.60;99.90;;;;;;4953987;29;20032;-88
2022/01/31 04:23:50;;;;;;;41.42;13.07;;;0.60;99.90;;;;;;4953802;29;20496;-89
2022/01/31 04:26:16;;;;;;;34.90;12.82;;;0.60;99.90;;;;;;4970373;28;20229;-89
2022/01/31 04:28:47;;;;;;;36.58;12.05;;;0.60;99.90;;;;;;4953900;29;20078;-88
2022/01/31 04:33:47;;;;;;;39.47;13.10;;;0.60;99.90;;;;;;4939115;29;20519;-88
2022/01/31 04:36:16;;;;;;;39.38;11.95;;;0.60;99.90;;;;;;4953558;29;20156;-87
2022/01/31 04:38:44;;;;;;;41.65;12.88;;;0.60;99.90;;;;;;4953794;29;20036;-89
2022/01/31 04:41:10;;;;;;;39.90;12.27;;;0.60;99.90;;;;;;4937869;29;20028;-88
2022/01/31 04:43:36;;;;;;;36.58;13.50;;;0.60;99.90;;;;;;4953450;29;20044;-88
2022/01/31 04:46:05;;;;;;;40.90;13.15;;;0.60;99.90;;;;;;4953661;29;20040;-88
2022/01/31 04:48:30;;;;;;;35.55;12.55;;;0.60;99.90;;;;;;4953668;29;20044;-89
2022/01/31 04:50:56;;;;;;;39.78;11.80;;;0.60;99.90;;;;;;4953221;29;20035;-88
2022/01/31 04:53:22;;;;;;;28.13;11.93;;;0.60;99.90;;;;;;4952839;29;20552;-88
2022/01/31 04:55:48;;;;;;;37.50;12.45;;;0.60;99.90;;;;;;4953053;29;20032;-88
2022/01/31 04:58:14;;;;;;;30.42;12.73;;;0.60;99.90;;;;;;4952849;29;20484;-88
2022/01/31 05:00:40;;;;;;;38.80;11.50;;;0.60;99.90;;;;;;4953174;29;20035;-88
2022/01/31 05:03:16;;;;;;;32.70;11.80;;;0.60;99.90;;;;;;4937077;29;20076;-90
2022/01/31 05:05:43;;;;;;;27.05;10.70;;;0.60;99.90;;;;;;4968847;28;20032;-89
2022/01/31 05:08:09;;;;;;;42.50;12.88;;;0.70;99.90;;;;;;4952665;29;20036;-88
2022/01/31 05:10:42;;;;;;;34.20;10.57;;;0.70;99.90;;;;;;4952503;29;20075;-88
2022/01/31 05:13:07;;;;;;;25.92;10.63;;;0.70;99.90;;;;;;4952988;29;20068;-89
2022/01/31 05:15:33;;;;;;;32.65;9.80;;;0.70;99.90;;;;;;4952861;29;20043;-89
2022/01/31 05:17:59;;;;;;;41.33;10.80;;;0.70;99.90;;;;;;4938051;29;20035;-88
2022/01/31 05:20:32;;;;;;;27.73;10.45;;;0.70;99.90;;;;;;4952749;29;20068;-90
2022/01/31 05:22:58;;;;;;;25.77;9.55;;;0.70;99.90;;;;;;4952684;29;20032;-90
2022/01/31 05:25:24;;;;;;;30.80;10.25;;;0.70;99.90;;;;;;4952961;29;20035;-89
2022/01/31 05:27:51;;;;;;;41.58;10.35;;;0.80;99.90;;;;;;4952722;29;20075;-89
2022/01/31 05:30:17;;;;;;;36.63;10.38;;;0.70;99.90;;;;;;4952821;29;20476;-89
2022/01/31 05:32:43;;;;;;;44.45;12.15;;;0.70;99.90;;;;;;4953028;29;20046;-89
2022/01/31 05:35:10;;;;;;;37.80;11.23;;;0.70;99.90;;;;;;4952899;29;20089;-89
2022/01/31 05:37:37;;;;;;;35.00;10.80;;;0.70;99.90;;;;;;4937156;29;20465;-89
2022/01/31 05:40:04;;;;;;;38.97;11.73;;;0.70;99.90;;;;;;4953050;29;20643;-89
2022/01/31 05:42:31;;;;;;;37.30;11.70;;;0.70;99.90;;;;;;4951911;28;20433;-90
2022/01/31 05:44:57;;;;;;;34.53;11.15;;;0.70;99.90;;;;;;4952311;29;20039;-90
2022/01/31 05:47:23;;;;;;;27.52;11.25;;;0.70;99.90;;;;;;4952944;29;20068;-89
2022/01/31 05:49:49;;;;;;;32.65;10.50;;;0.70;99.90;;;;;;4937981;29;20043;-89
2022/01/31 05:52:18;;;;;;;36.60;11.70;;;0.60;99.90;;;;;;4938792;29;20028;-90
2022/01/31 05:54:52;;;;;;;35.63;11.95;;;0.50;99.90;;;;;;4952635;29;20075;-90
2022/01/31 05:57:18;;;;;;;41.60;14.15;;;0.40;99.90;;;;;;4952451;29;20036;-90
2022/01/31 05:59:45;;;;;;;40.63;13.25;;;0.40;99.90;;;;;;4951641;29;20036;-89
2022/01/31 06:02:11;;;;;;;35.15;14.27;;;0.30;99.90;;;;;;4952739;29;20107;-90
2022/01/31 06:04:37;;;;;;;32.75;12.93;;;0.30;99.90;;;;;;4952189;28;20035;-92
2022/01/31 06:07:04;;;;;;;39.17;14.05;;;0.30;99.90;;;;;;4952409;28;20094;-90
2022/01/31 06:09:32;;;;;;;46.50;14.77;;;0.30;99.90;;;;;;4951913;28;20485;-89
2022/01/31 06:12:01;;;;;;;42.40;15.30;;;0.30;99.90;;;;;;4951690;29;20051;-90
2022/01/31 06:14:27;;;;;;;52.33;17.92;;;0.30;99.90;;;;;;4952430;28;20074;-91
2022/01/31 06:16:54;;;;;;;37.97;14.65;;;0.30;99.90;;;;;;4952132;29;20055;-91
2022/01/31 06:19:20;;;;;;;42.83;17.25;;;0.20;99.90;;;;;;4952712;28;20444;-91
2022/01/31 06:21:45;;;;;;;27.40;14.15;;;0.20;99.90;;;;;;4952436;28;20099;-90
2022/01/31 06:24:18;;;;;;;26.35;13.00;;;0.20;99.90;;;;;;4951914;28;20055;-91
2022/01/31 06:26:53;;;;;;;29.83;12.80;;;0.30;99.90;;;;;;4951948;29;20094;-92
2022/01/31 06:29:21;;;;;;;28.92;12.95;;;0.20;99.90;;;;;;4952172;28;20051;-91
2022/01/31 06:31:48;;;;;;;29.73;12.65;;;0.30;99.90;;;;;;4952779;28;20034;-91
2022/01/31 06:34:18;;;;;;;26.55;11.95;;;0.30;99.90;;;;;;4952153;28;20054;-92
2022/01/31 06:36:44;;;;;;;35.70;12.70;;;0.30;99.90;;;;;;4952457;28;20031;-91
2022/01/31 06:39:10;;;;;;;25.17;12.93;;;0.30;99.90;;;;;;4952991;28;20054;-94
2022/01/31 06:41:45;;;;;;;37.75;14.35;;;0.20;99.90;;;;;;4969351;28;20113;-92
2022/01/31 06:44:11;;;;;;;47.70;14.77;;;0.30;99.90;;;;;;4950682;28;20118;-92
2022/01/31 06:46:37;;;;;;;43.97;14.50;;;0.30;99.90;;;;;;4983637;28;20023;-91
2022/01/31 06:49:06;;;;;;;39.65;14.18;;;0.30;99.90;;;;;;4959311;28;20091;-92
2022/01/31 06:51:32;;;;;;;34.15;14.00;;;0.30;99.90;;;;;;4951007;28;20485;-91
2022/01/31 06:54:05;;;;;;;27.83;11.75;;;0.30;99.90;;;;;;4955809;28;20027;-93
2022/01/31 06:56:35;;;;;;;30.05;14.93;;;0.40;99.90;;;;;;4971340;28;20039;-91
2022/01/31 06:59:18;;;;;;;38.38;14.02;;;0.30;99.90;;;;;;4950684;28;20456;-92
2022/01/31 07:01:49;;;;;;;31.90;16.10;;;0.30;99.90;;;;;;4956837;29;20039;-92
2022/01/31 07:04:37;;;;;;;25.50;11.13;;;0.30;99.90;;;;;;4957162;28;20521;-94
2022/01/31 07:10:22;;;;;;;30.48;12.48;;;0.40;99.90;;;;;;4952788;29;20567;-92
2022/01/31 07:12:56;;;;;;;24.05;12.02;;;0.40;99.90;;;;;;4957732;28;20035;-91
2022/01/31 07:16:07;;;;;;;32.50;14.70;;;0.40;99.90;;;;;;4957818;29;20451;-92
2022/01/31 07:18:35;;;;;;;24.40;10.55;;;0.40;99.90;;;;;;4959549;28;20082;-92
2022/01/31 07:21:11;;;;;;;40.20;15.20;;;0.50;99.90;;;;;;4955574;28;20036;-94
2022/01/31 07:24:04;;;;;;;20.77;10.43;;;0.60;99.90;;;;;;4970672;28;20051;-91
2022/01/31 07:26:32;;;;;;;24.60;10.83;;;0.60;99.90;;;;;;4945556;28;20131;-89
2022/01/31 07:29:00;;;;;;;24.85;11.43;;;0.60;99.90;;;;;;4969833;28;20039;-91
2022/01/31 07:31:26;;;;;;;32.70;11.68;;;0.60;99.90;;;;;;4961240;28;20028;-92
2022/01/31 07:33:56;;;;;;;31.05;11.65;;;0.70;99.90;;;;;;4956039;28;20035;-90
2022/01/31 07:36:25;;;;;;;28.90;11.38;;;0.70;99.90;;;;;;4947408;29;20035;-90
2022/01/31 07:38:51;;;;;;;24.35;9.35;;;0.80;99.90;;;;;;4974231;28;20174;-92
2022/01/31 07:42:18;;;;;;;31.10;11.45;;;0.80;99.90;;;;;;4970291;28;20079;-91
2022/01/31 07:45:01;;;;;;;30.50;13.10;;;0.80;99.90;;;;;;4954665;28;20035;-94
2022/01/31 07:48:01;;;;;;;28.45;11.40;;;0.90;99.90;;;;;;4954471;29;20094;-94
2022/01/31 07:50:42;;;;;;;26.60;11.32;;;0.90;99.90;;;;;;4967309;28;20035;-94
2022/01/31 08:07:06;;;;;;;29.15;11.27;;;1.00;99.90;;;;;;4860200;29;20115;-94
2022/01/31 08:09:35;;;;;;;31.73;12.20;;;1.10;99.90;;;;;;4924256;29;20033;-93
2022/01/31 08:12:36;;;;;;;27.98;12.73;;;1.10;99.90;;;;;;4888299;29;20209;-92
2022/01/31 08:19:37;;;;;;;22.33;12.30;;;1.10;99.90;;;;;;4851016;29;20108;-93
2022/01/31 08:22:24;;;;;;;19.52;10.60;;;1.10;99.90;;;;;;4909740;29;20040;-93
2022/01/31 08:26:01;;;;;;;26.02;11.45;;;1.20;99.90;;;;;;4903706;29;20051;-96
2022/01/31 08:28:36;;;;;;;20.83;10.52;;;1.20;99.90;;;;;;4905457;29;20131;-95
2022/01/31 08:31:41;;;;;;;17.10;9.85;;;1.20;99.90;;;;;;4906226;29;20071;-92
2022/01/31 08:35:47;;;;;;;22.40;9.60;;;1.20;99.90;;;;;;4921544;29;20506;-92
2022/01/31 08:37:35;;;;;;;16.50;10.32;;;1.30;99.90;;;;;;4907018;29;20051;-93
2022/01/31 08:40:31;;;;;;;29.92;10.68;;;1.30;99.90;;;;;;4915226;29;20036;-94
2022/01/31 08:43:21;;;;;;;18.30;9.30;;;1.50;99.90;;;;;;4929923;28;20035;-93
2022/01/31 08:46:01;;;;;;;26.88;10.15;;;1.50;99.90;;;;;;4958511;29;20027;-93
2022/01/31 08:48:33;;;;;;;20.42;9.05;;;1.50;99.90;;;;;;4974477;28;20102;-93
2022/01/31 08:51:04;;;;;;;14.98;8.10;;;1.50;99.90;;;;;;4957267;28;20048;-94
2022/01/31 08:53:48;;;;;;;21.60;9.00;;;1.50;99.90;;;;;;4958015;29;20027;-94
2022/01/31 08:56:14;;;;;;;16.92;9.05;;;1.40;99.90;;;;;;4956685;28;20038;-91
2022/01/31 08:58:48;;;;;;;13.43;8.68;;;1.50;99.90;;;;;;4957514;28;20039;-93
2022/01/31 09:01:18;;;;;;;11.82;7.57;;;1.50;99.90;;;;;;4956652;28;20035;-92
2022/01/31 09:06:19;;;;;;;12.40;7.60;;;1.60;99.90;;;;;;4972558;28;20034;-92
2022/01/31 09:08:48;;;;;;;14.27;7.45;;;1.50;99.90;;;;;;4973577;28;20028;-91
2022/01/31 09:11:17;;;;;;;23.85;7.88;;;1.50;99.90;;;;;;4969674;28;20031;-91
2022/01/31 09:13:43;;;;;;;14.32;7.28;;;1.50;99.90;;;;;;4992063;28;20031;-93
2022/01/31 09:16:10;;;;;;;12.85;7.97;;;1.50;99.90;;;;;;4992135;28;20033;-91
2022/01/31 09:18:38;;;;;;;15.90;7.82;;;1.50;99.90;;;;;;4974971;28;20120;-92
2022/01/31 09:21:04;;;;;;;16.58;7.85;;;1.50;99.90;;;;;;4977256;28;20035;-91
2022/01/31 09:23:30;;;;;;;11.88;7.82;;;1.50;99.90;;;;;;4966108;28;20035;-91
2022/01/31 09:25:59;;;;;;;12.63;7.47;;;1.50;99.90;;;;;;4961106;28;20054;-92
2022/01/31 09:28:26;;;;;;;18.75;8.07;;;1.70;99.90;;;;;;4963973;28;20500;-92
2022/01/31 09:30:53;;;;;;;11.77;6.38;;;1.80;99.90;;;;;;4955959;29;20420;-91
2022/01/31 09:33:19;;;;;;;13.05;6.38;;;1.90;99.90;;;;;;4956003;29;20085;-92
2022/01/31 09:35:48;;;;;;;11.75;6.32;;;2.00;99.90;;;;;;4956380;29;20039;-91
2022/01/31 09:38:18;;;;;;;16.00;6.53;;;1.90;99.90;;;;;;4957073;28;20034;-92
2022/01/31 09:40:44;;;;;;;17.88;9.57;;;1.80;99.90;;;;;;4955480;29;20126;-90
2022/01/31 09:46:05;;;;;;;17.25;6.82;;;1.80;99.90;;;;;;4971378;28;20093;-91
2022/01/31 09:48:43;;;;;;;9.02;5.07;;;1.80;99.90;;;;;;4955458;29;20121;-90
2022/01/31 09:51:12;;;;;;;21.67;5.93;;;1.90;99.90;;;;;;4955720;29;20038;-90
2022/01/31 09:53:53;;;;;;;14.70;5.38;;;1.90;99.90;;;;;;4955011;29;20121;-91
2022/01/31 09:56:31;;;;;;;10.20;5.22;;;1.90;99.90;;;;;;4955668;28;20042;-91
2022/01/31 09:59:02;;;;;;;11.57;5.55;;;1.80;99.90;;;;;;4971541;28;20035;-92
2022/01/31 10:01:35;;;;;;;14.52;5.93;;;1.70;99.90;;;;;;4945515;29;20074;-89
2022/01/31 10:04:14;;;;;;;16.98;5.72;;;1.60;99.90;;;;;;4936099;29;20488;-90
2022/01/31 10:06:41;;;;;;;12.27;4.95;;;1.50;99.90;;;;;;4936595;29;20042;-91
2022/01/31 10:09:31;;;;;;;21.77;7.18;;;1.50;99.90;;;;;;4936182;29;20028;-92
2022/01/31 10:12:06;;;;;;;19.48;7.63;;;1.50;99.90;;;;;;4934650;29;20043;-90
2022/01/31 10:17:42;;;;;;;15.55;8.20;;;1.50;99.90;;;;;;4971615;28;20031;-91
2022/01/31 10:20:31;;;;;;;13.55;8.55;;;1.50;99.90;;;;;;4955238;29;20034;-92
2022/01/31 10:23:09;;;;;;;21.27;10.05;;;1.50;99.90;;;;;;4938597;29;20050;-92
2022/01/31 10:25:36;;;;;;;27.75;9.43;;;1.40;99.90;;;;;;4970325;28;20046;-89
2022/01/31 10:28:14;;;;;;;20.00;9.38;;;1.40;99.90;;;;;;4955250;28;20039;-91
2022/01/31 10:30:41;;;;;;;18.48;9.18;;;1.40;99.90;;;;;;4955011;29;20043;-89
2022/01/31 10:33:09;;;;;;;15.77;9.05;;;1.40;99.90;;;;;;4956650;28;20035;-92
2022/01/31 10:35:51;;;;;;;19.40;9.55;;;1.40;99.90;;;;;;4954672;29;20543;-91
2022/01/31 10:38:37;;;;;;;15.18;8.13;;;1.40;99.90;;;;;;4955471;29;20035;-90
2022/01/31 10:54:04;;;;;;;17.88;8.18;;;1.50;99.90;;;;;;4933311;29;20036;-90
2022/01/31 10:57:01;;;;;;;19.02;8.65;;;1.60;99.90;;;;;;4938866;29;20031;-89
2022/01/31 10:59:36;;;;;;;18.08;8.23;;;1.60;99.90;;;;;;4929549;28;20436;-91
2022/01/31 11:02:07;;;;;;;16.77;9.20;;;1.50;99.90;;;;;;4950911;28;20137;-90
2022/01/31 11:04:36;;;;;;;19.73;7.72;;;1.50;99.90;;;;;;4965380;28;20034;-90
2022/01/31 11:07:08;;;;;;;15.45;7.10;;;1.50;99.90;;;;;;4954931;29;20035;-91
2022/01/31 11:09:35;;;;;;;20.27;8.07;;;1.50;99.90;;;;;;4951999;28;20023;-90
2022/01/31 11:12:02;;;;;;;17.45;6.97;;;1.50;99.90;;;;;;4953045;29;20035;-91
2022/01/31 11:14:28;;;;;;;15.55;7.05;;;1.50;99.90;;;;;;4968033;28;20082;-91
2022/01/31 11:16:56;;;;;;;19.15;7.50;;;1.50;99.90;;;;;;4951949;28;20031;-91
2022/01/31 11:19:32;;;;;;;15.45;8.20;;;1.50;99.90;;;;;;4967236;28;20434;-90
2022/01/31 11:22:05;;;;;;;26.13;9.10;;;1.60;99.90;;;;;;4950512;28;20027;-91
2022/01/31 11:24:44;;;;;;;14.27;6.57;;;1.60;99.90;;;;;;4951838;28;20035;-92
2022/01/31 11:27:23;;;;;;;15.38;7.00;;;1.60;99.90;;;;;;4952237;28;20035;-91
2022/01/31 11:30:22;;;;;;;23.80;7.63;;;1.60;99.90;;;;;;4962694;28;20548;-91
2022/01/31 11:32:48;;;;;;;18.25;6.50;;;1.60;99.90;;;;;;4951721;28;20505;-90
2022/01/31 11:35:24;;;;;;;16.70;6.85;;;1.60;99.90;;;;;;4951978;28;20365;-91
2022/01/31 11:37:55;;;;;;;10.23;6.05;;;1.70;99.90;;;;;;4951765;28;20031;-90
2022/01/31 11:40:35;;;;;;;11.32;6.72;;;1.70;99.90;;;;;;4947829;28;20031;-91
2022/01/31 11:43:02;;;;;;;14.05;5.97;;;1.70;99.90;;;;;;4956988;29;20542;-91
2022/01/31 11:45:37;;;;;;;16.30;6.78;;;1.70;99.90;;;;;;4955299;28;20027;-92
2022/01/31 11:48:23;;;;;;;10.93;6.25;;;1.60;99.90;;;;;;4955498;28;20134;-90
2022/01/31 11:50:54;;;;;;;8.68;5.20;;;1.70;99.90;;;;;;4957073;28;20519;-91
2022/01/31 11:53:30;;;;;;;12.15;5.57;;;1.60;99.90;;;;;;4970354;28;20181;-90
2022/01/31 11:56:20;;;;;;;14.60;5.50;;;1.60;99.90;;;;;;4958952;28;20039;-90
2022/01/31 11:58:52;;;;;;;17.95;5.32;;;1.60;99.90;;;;;;4950668;29;20093;-91
2022/01/31 12:01:20;;;;;;;15.15;5.45;;;1.60;99.90;;;;;;4960756;28;20066;-92
2022/01/31 12:04:21;;;;;;;12.57;5.93;;;1.70;99.90;;;;;;4954070;29;20058;-89
2022/01/31 12:06:56;;;;;;;14.45;6.28;;;1.70;99.90;;;;;;4971794;28;20110;-90
2022/01/31 12:09:27;;;;;;;11.98;4.13;;;1.70;99.90;;;;;;4972232;28;20027;-90
2022/01/31 12:12:08;;;;;;;14.98;4.75;;;1.60;99.90;;;;;;4968125;28;20361;-90
2022/01/31 12:14:54;;;;;;;15.77;5.03;;;1.70;99.90;;;;;;4955632;28;20099;-90
2022/01/31 12:23:57;;;;;;;7.55;3.60;;;1.60;99.90;;;;;;4958898;28;20094;-91
2022/01/31 12:26:36;;;;;;;31.88;13.35;;;1.60;99.90;;;;;;4930955;29;20039;-92
2022/01/31 12:29:15;;;;;;;8.98;4.68;;;1.60;99.90;;;;;;4951444;29;20045;-91
2022/01/31 12:31:57;;;;;;;10.02;4.13;;;1.60;99.90;;;;;;4969585;28;20808;-90
2022/01/31 12:34:28;;;;;;;11.32;3.50;;;1.60;99.90;;;;;;4967022;28;20058;-90
2022/01/31 12:36:59;;;;;;;15.13;4.15;;;1.60;99.90;;;;;;4959360;28;20062;-90
2022/01/31 12:39:35;;;;;;;12.57;3.58;;;1.60;99.90;;;;;;4971280;28;20023;-92
2022/01/31 12:45:26;;;;;;;10.63;2.90;;;1.60;99.90;;;;;;4940300;29;20035;-91
2022/01/31 12:48:12;;;;;;;7.50;3.30;;;1.60;99.90;;;;;;4967073;28;20039;-91
2022/01/31 12:51:02;;;;;;;7.50;3.28;;;1.50;99.90;;;;;;4970253;28;20038;-91
2022/01/31 12:56:46;;;;;;;11.50;3.42;;;1.50;99.90;;;;;;4952342;28;20484;-92
2022/01/31 12:59:21;;;;;;;4.85;2.55;;;1.40;99.90;;;;;;4922670;29;20383;-91
2022/01/31 13:01:53;;;;;;;10.20;2.50;;;1.30;99.90;;;;;;4956150;28;20035;-91
2022/01/31 13:04:31;;;;;;;10.35;4.03;;;1.30;99.90;;;;;;4954970;29;20031;-91
2022/01/31 13:10:55;;;;;;;14.68;7.35;;;1.20;99.90;;;;;;4954396;29;20090;-91
2022/01/31 13:13:56;;;;;;;13.48;4.55;;;1.20;99.90;;;;;;4952438;28;20558;-91
2022/01/31 13:16:42;;;;;;;13.25;7.13;;;1.20;99.90;;;;;;4956392;28;20046;-91
2022/01/31 13:22:40;;;;;;;12.15;6.10;;;1.20;99.90;;;;;;4954929;28;20183;-92
2022/01/31 13:25:12;;;;;;;13.48;6.13;;;1.20;99.90;;;;;;4954462;28;20042;-93
2022/01/31 13:27:47;;;;;;;13.27;5.78;;;1.20;99.90;;;;;;4955868;29;20484;-91
2022/01/31 13:30:33;;;;;;;17.80;5.47;;;1.10;99.90;;;;;;4954687;28;20035;-93
2022/01/31 13:33:24;;;;;;;23.98;7.32;;;1.00;99.90;;;;;;4955986;28;20039;-92
2022/01/31 13:36:05;;;;;;;25.05;10.38;;;0.90;99.90;;;;;;4955496;28;20054;-91
2022/01/31 13:42:47;;;;;;;15.95;5.55;;;1.00;99.90;;;;;;4956142;29;20038;-92
2022/01/31 13:45:37;;;;;;;17.65;4.45;;;1.00;99.90;;;;;;4939532;29;20054;-92
2022/01/31 13:54:55;;;;;;;17.75;4.22;;;1.00;99.90;;;;;;4941773;29;20043;-92
2022/01/31 13:57:36;;;;;;;11.60;4.50;;;1.10;99.90;;;;;;4938544;29;20436;-94
2022/01/31 14:00:07;;;;;;;17.40;4.38;;;1.00;99.90;;;;;;4966783;28;20078;-92
2022/01/31 14:02:39;;;;;;;11.50;4.22;;;0.90;99.90;;;;;;4973128;28;20049;-93
2022/01/31 14:05:53;;;;;;;19.70;4.82;;;1.00;99.90;;;;;;4956436;29;20035;-93
2022/01/31 14:09:11;;;;;;;12.40;4.18;;;1.00;99.90;;;;;;4957564;29;20054;-93
2022/01/31 14:12:17;;;;;;;13.52;3.80;;;0.90;99.90;;;;;;4968867;28;20039;-92
2022/01/31 14:15:08;;;;;;;13.30;4.07;;;1.00;99.90;;;;;;4957584;29;20035;-90
2022/01/31 14:17:51;;;;;;;11.82;2.53;;;1.00;99.90;;;;;;4957504;29;20035;-92
2022/01/31 14:20:20;;;;;;;7.90;3.28;;;1.10;99.90;;;;;;4957663;29;20031;-93
2022/01/31 14:22:58;;;;;;;14.32;3.17;;;1.10;99.90;;;;;;4957265;29;20078;-91
2022/01/31 14:26:00;;;;;;;13.40;2.97;;;1.10;99.90;;;;;;4948260;29;20031;-92
2022/01/31 14:28:37;;;;;;;5.53;2.45;;;1.20;99.90;;;;;;4942029;29;20063;-94
2022/01/31 14:31:14;;;;;;;9.40;3.63;;;1.20;99.90;;;;;;4951583;28;20135;-93
2022/01/31 14:33:50;;;;;;;11.15;3.63;;;1.20;99.90;;;;;;4936710;29;20035;-91